createdAt,value
2022-11-28T00:06:53.763Z,985.19
2022-11-28T00:18:54.241Z,985.17
2022-11-28T00:30:54.665Z,984.97
2022-11-28T00:42:55.108Z,984.85
2022-11-28T00:54:55.607Z,984.91
2022-11-28T01:06:56.029Z,984.69
2022-11-28T01:18:56.432Z,984.64
2022-11-28T01:30:56.914Z,984.36
2022-11-28T01:42:57.391Z,984.18
2022-11-28T01:54:57.823Z,984.07
2022-11-28T02:06:58.289Z,983.85
2022-11-28T02:18:58.741Z,983.62
2022-11-28T02:30:59.278Z,983.40
2022-11-28T02:42:59.645Z,983.36
2022-11-28T02:55:00.088Z,983.34
2022-11-28T03:07:00.538Z,983.34
2022-11-28T03:19:01.005Z,983.45
2022-11-28T03:31:01.498Z,983.28
2022-11-28T03:43:01.850Z,983.20
2022-11-28T03:55:02.315Z,983.21
2022-11-28T04:07:02.761Z,982.86
2022-11-28T04:19:03.257Z,982.84
2022-11-28T04:31:03.678Z,983.00
2022-11-28T04:43:04.160Z,982.90
2022-11-28T04:55:04.607Z,982.91
2022-11-28T05:07:05.068Z,982.65
2022-11-28T05:19:05.489Z,982.62
2022-11-28T05:31:06.020Z,982.57
2022-11-28T05:43:06.463Z,982.56
2022-11-28T05:55:06.872Z,982.63
2022-11-28T06:07:07.330Z,982.50
2022-11-28T06:19:07.740Z,982.47
2022-11-28T06:31:08.205Z,982.38
2022-11-28T06:43:08.707Z,982.40
2022-11-28T06:55:09.094Z,982.44
2022-11-28T07:07:13.702Z,982.55
2022-11-28T07:19:10.049Z,982.48
2022-11-28T07:31:10.479Z,982.40
2022-11-28T07:43:10.928Z,982.40
2022-11-28T07:55:11.431Z,982.38
2022-11-28T08:07:11.907Z,982.21
2022-11-28T08:19:12.300Z,982.30
2022-11-28T08:31:12.795Z,982.31
2022-11-28T08:43:13.182Z,982.23
2022-11-28T08:55:13.697Z,982.36
2022-11-28T09:07:14.206Z,982.23
2022-11-28T09:19:14.558Z,982.24
2022-11-28T09:31:15.211Z,982.13
2022-11-28T09:43:15.517Z,982.07
2022-11-28T09:55:15.948Z,981.94
2022-11-28T10:07:16.426Z,981.76
2022-11-28T10:19:46.155Z,981.87
2022-11-28T10:31:17.351Z,981.54
2022-11-28T10:43:17.679Z,981.40
2022-11-28T10:55:18.194Z,981.30
2022-11-28T11:07:21.015Z,981.10
2022-11-28T11:19:19.096Z,981.12
2022-11-28T11:31:19.569Z,981.01
2022-11-28T11:43:19.965Z,980.94
2022-11-28T11:55:20.423Z,980.88
2022-11-28T12:07:20.980Z,980.63
2022-11-28T12:19:21.313Z,980.39
2022-11-28T12:31:21.847Z,980.45
2022-11-28T12:43:22.206Z,980.47
2022-11-28T12:55:22.715Z,980.54
2022-11-28T13:07:23.167Z,980.64
2022-11-28T13:19:23.634Z,980.66
2022-11-28T13:31:24.146Z,980.73
2022-11-28T13:43:24.513Z,980.76
2022-11-28T13:55:24.930Z,980.67
2022-11-28T14:07:25.458Z,980.75
2022-11-28T14:19:25.869Z,980.72
2022-11-28T14:31:26.321Z,980.74
2022-11-28T14:43:26.767Z,980.66
2022-11-28T14:55:27.177Z,980.82
2022-11-28T15:07:27.683Z,980.83
2022-11-28T15:19:28.121Z,980.78
2022-11-28T15:31:28.576Z,980.82
2022-11-28T15:43:29.004Z,980.90
2022-11-28T15:55:29.495Z,980.90
2022-11-28T16:07:29.914Z,980.93
2022-11-28T16:19:30.352Z,980.87
2022-11-28T16:31:31.059Z,981.05
2022-11-28T16:43:31.286Z,981.16
2022-11-28T16:55:31.736Z,981.25
2022-11-28T17:07:32.211Z,981.36
2022-11-28T17:19:32.604Z,981.29
2022-11-28T17:31:33.072Z,981.15
2022-11-28T17:43:37.557Z,981.14
2022-11-28T17:55:34.000Z,981.06
2022-11-28T18:07:34.446Z,981.06
2022-11-28T18:19:34.886Z,981.14
2022-11-28T18:31:35.390Z,981.07
2022-11-28T18:43:35.820Z,981.11
2022-11-28T18:55:36.215Z,981.16
2022-11-28T19:07:36.741Z,981.04
2022-11-28T19:19:37.132Z,980.96
2022-11-28T19:31:37.647Z,980.96
2022-11-28T19:43:38.042Z,980.96
2022-11-28T19:55:38.495Z,980.97
2022-11-28T20:07:39.004Z,980.97
2022-11-28T20:19:39.425Z,981.15
2022-11-28T20:31:39.882Z,981.15
2022-11-28T20:43:40.284Z,981.06
2022-11-28T20:55:40.751Z,981.17
2022-11-28T21:07:41.258Z,981.04
2022-11-28T21:19:41.979Z,981.08
2022-11-28T21:31:42.153Z,981.06
2022-11-28T21:43:42.579Z,981.02
2022-11-28T21:55:43.024Z,981.08
2022-11-28T22:07:43.525Z,981.11
2022-11-28T22:19:43.946Z,981.15
2022-11-28T22:31:44.398Z,981.05
2022-11-28T22:43:44.803Z,981.02
2022-11-28T22:55:45.264Z,981.07
2022-11-28T23:07:45.718Z,981.05
2022-11-28T23:19:46.197Z,981.00
2022-11-28T23:31:46.666Z,981.01
2022-11-28T23:43:47.101Z,981.00
2022-11-28T23:55:47.530Z,980.81
